createdAt,value
2019-05-15T00:01:08.688Z,1.50
2019-05-15T00:03:39.158Z,1.50
2019-05-15T00:06:08.752Z,1.40
2019-05-15T00:08:38.623Z,1.50
2019-05-15T00:11:08.300Z,1.50
2019-05-15T00:13:38.830Z,1.50
2019-05-15T00:16:08.589Z,1.50
2019-05-15T00:18:39.079Z,1.50
2019-05-15T00:21:09.376Z,1.40
2019-05-15T00:23:38.947Z,1.50
2019-05-15T00:26:09.319Z,1.50
2019-05-15T00:28:38.973Z,1.53
2019-05-15T00:31:09.048Z,1.50
2019-05-15T00:33:39.441Z,1.27
2019-05-15T00:36:09.130Z,1.50
2019-05-15T00:38:38.980Z,1.43
2019-05-15T00:41:09.406Z,1.40
2019-05-15T00:43:39.942Z,1.50
2019-05-15T00:46:09.327Z,1.53
2019-05-15T00:48:39.776Z,1.30
2019-05-15T00:51:09.078Z,1.37
2019-05-15T00:53:38.998Z,1.60
2019-05-15T00:56:09.020Z,1.57
2019-05-15T00:58:40.170Z,1.40
2019-05-15T01:01:08.794Z,1.43
2019-05-15T01:03:38.737Z,1.40
2019-05-15T01:06:08.481Z,1.47
2019-05-15T01:08:39.355Z,1.30
2019-05-15T01:11:09.165Z,1.30
2019-05-15T01:13:39.040Z,1.73
2019-05-15T01:16:09.189Z,1.50
2019-05-15T01:18:38.815Z,1.50
2019-05-15T01:21:08.845Z,1.47
2019-05-15T01:23:39.053Z,1.47
2019-05-15T01:26:08.485Z,1.33
2019-05-15T01:28:38.430Z,1.40
2019-05-15T01:31:08.497Z,1.50
2019-05-15T01:33:39.004Z,1.30
2019-05-15T01:36:08.738Z,1.40
2019-05-15T01:38:38.890Z,1.50
2019-05-15T01:41:09.772Z,1.50
2019-05-15T01:43:38.683Z,1.47
2019-05-15T01:46:08.363Z,1.30
2019-05-15T01:48:38.809Z,1.30
2019-05-15T01:51:09.366Z,1.30
2019-05-15T01:53:38.720Z,1.60
2019-05-15T01:56:08.374Z,1.40
2019-05-15T01:58:39.008Z,1.50
2019-05-15T02:01:08.275Z,1.33
2019-05-15T02:03:38.662Z,1.30
2019-05-15T02:06:08.431Z,1.30
2019-05-15T02:08:39.542Z,1.30
2019-05-15T02:11:09.243Z,1.50
2019-05-15T02:13:38.990Z,1.03
2019-05-15T02:16:09.651Z,1.40
2019-05-15T02:18:39.087Z,1.30
2019-05-15T02:21:10.470Z,1.50
2019-05-15T02:23:39.601Z,1.43
2019-05-15T02:26:08.895Z,1.40
2019-05-15T02:28:38.384Z,1.40
2019-05-15T02:31:10.532Z,1.20
2019-05-15T02:33:39.914Z,1.30
2019-05-15T02:36:09.891Z,1.23
2019-05-15T02:38:40.961Z,1.37
2019-05-15T02:41:10.261Z,1.30
2019-05-15T02:43:39.844Z,1.40
2019-05-15T02:46:10.459Z,1.13
2019-05-15T02:48:40.944Z,1.10
2019-05-15T02:51:10.263Z,1.33
2019-05-15T02:53:39.729Z,1.30
2019-05-15T02:56:09.546Z,1.20
2019-05-15T02:58:39.743Z,1.30
2019-05-15T03:01:09.725Z,1.47
2019-05-15T03:03:39.369Z,1.20
2019-05-15T03:06:10.026Z,1.40
2019-05-15T03:08:39.874Z,1.20
2019-05-15T03:11:09.935Z,1.23
2019-05-15T03:13:40.109Z,1.30
2019-05-15T03:16:10.140Z,1.20
2019-05-15T03:18:40.113Z,1.30
2019-05-15T03:21:09.597Z,1.23
2019-05-15T03:23:40.466Z,1.20
2019-05-15T03:26:10.104Z,1.17
2019-05-15T03:28:39.757Z,1.37
2019-05-15T03:31:35.636Z,1.30
2019-05-15T03:33:46.052Z,1.30
2019-05-15T03:36:13.590Z,1.40
2019-05-15T03:38:40.794Z,1.20
2019-05-15T03:41:10.439Z,1.30
2019-05-15T03:43:40.033Z,1.43
2019-05-15T03:46:09.304Z,1.10
2019-05-15T03:48:40.209Z,1.40
2019-05-15T03:51:09.445Z,1.23
2019-05-15T03:53:40.026Z,1.40
2019-05-15T03:56:10.058Z,1.30
2019-05-15T03:58:40.083Z,1.47
2019-05-15T04:01:27.793Z,1.20
2019-05-15T04:03:40.469Z,1.30
2019-05-15T04:06:10.289Z,1.20
2019-05-15T04:08:39.834Z,1.30
2019-05-15T04:11:09.374Z,1.40
2019-05-15T04:13:39.775Z,1.30
2019-05-15T04:16:10.373Z,1.10
2019-05-15T04:18:40.077Z,1.27
2019-05-15T04:21:09.635Z,1.20
2019-05-15T04:23:39.824Z,1.47
2019-05-15T04:26:09.912Z,1.40
2019-05-15T04:28:42.241Z,1.33
2019-05-15T04:31:11.337Z,1.33
2019-05-15T04:33:40.487Z,1.30
2019-05-15T04:36:10.030Z,1.30
2019-05-15T04:38:39.554Z,1.27
2019-05-15T04:41:10.325Z,1.30
2019-05-15T04:43:44.538Z,1.50
2019-05-15T04:46:10.311Z,1.50
2019-05-15T04:48:39.980Z,1.27
2019-05-15T04:51:09.903Z,1.43
2019-05-15T04:53:39.787Z,1.60
2019-05-15T04:56:09.585Z,1.60
2019-05-15T04:58:39.761Z,1.63
2019-05-15T05:01:09.532Z,1.50
2019-05-15T05:03:39.628Z,1.60
2019-05-15T05:06:09.844Z,1.87
2019-05-15T05:08:40.007Z,1.40
2019-05-15T05:11:09.925Z,1.53
2019-05-15T05:13:39.495Z,1.50
2019-05-15T05:16:09.465Z,1.60
2019-05-15T05:18:40.951Z,1.57
2019-05-15T05:21:09.656Z,1.53
2019-05-15T05:23:38.720Z,1.30
2019-05-15T05:26:11.253Z,1.60
2019-05-15T05:28:39.711Z,1.60
2019-05-15T05:31:08.698Z,1.70
2019-05-15T05:33:38.295Z,1.50
2019-05-15T05:36:07.905Z,1.50
2019-05-15T05:38:38.729Z,1.70
2019-05-15T05:41:08.335Z,1.40
2019-05-15T05:43:38.459Z,1.30
2019-05-15T05:46:09.232Z,1.40
2019-05-15T05:48:38.592Z,1.43
2019-05-15T05:51:09.205Z,1.60
2019-05-15T05:53:38.594Z,1.53
2019-05-15T05:56:08.903Z,1.40
2019-05-15T05:58:39.097Z,1.40
2019-05-15T06:01:09.287Z,1.50
2019-05-15T06:03:39.650Z,1.30
2019-05-15T06:06:09.821Z,1.30
2019-05-15T06:08:40.405Z,1.57
2019-05-15T06:11:09.987Z,1.70
2019-05-15T06:13:39.291Z,1.40
2019-05-15T06:16:08.579Z,1.40
2019-05-15T06:18:38.734Z,1.60
2019-05-15T06:21:09.151Z,1.47
2019-05-15T06:23:45.673Z,1.40
2019-05-15T06:26:09.628Z,1.50
2019-05-15T06:28:39.843Z,1.70
2019-05-15T06:31:09.136Z,1.40
2019-05-15T06:33:38.581Z,1.63
2019-05-15T06:36:08.874Z,1.40
2019-05-15T06:38:39.317Z,1.80
2019-05-15T06:41:08.891Z,1.60
2019-05-15T06:43:38.841Z,1.70
2019-05-15T06:46:09.106Z,1.50
2019-05-15T06:48:38.525Z,1.60
2019-05-15T06:51:08.863Z,1.77
2019-05-15T06:53:38.469Z,1.50
2019-05-15T06:56:08.071Z,1.57
2019-05-15T06:58:38.835Z,1.67
2019-05-15T07:01:08.780Z,1.50
2019-05-15T07:03:39.293Z,1.50
2019-05-15T07:06:11.460Z,1.50
2019-05-15T07:08:40.387Z,1.47
2019-05-15T07:11:09.457Z,1.50
2019-05-15T07:13:38.564Z,1.67
2019-05-15T07:16:08.230Z,1.70
2019-05-15T07:18:39.619Z,1.80
2019-05-15T07:21:10.236Z,2.10
2019-05-15T07:23:39.736Z,1.70
2019-05-15T07:26:09.436Z,1.73
2019-05-15T07:28:39.057Z,1.67
2019-05-15T07:31:11.586Z,1.50
2019-05-15T07:33:43.285Z,1.90
2019-05-15T07:36:09.737Z,1.70
2019-05-15T07:38:39.308Z,1.60
2019-05-15T07:41:10.565Z,1.80
2019-05-15T07:43:42.246Z,1.90
2019-05-15T07:46:11.721Z,1.70
2019-05-15T07:48:43.893Z,1.77
2019-05-15T07:51:11.942Z,1.80
2019-05-15T07:53:41.180Z,2.07
2019-05-15T07:56:11.865Z,2.30
2019-05-15T07:58:40.788Z,2.13
2019-05-15T08:01:10.273Z,2.00
2019-05-15T08:03:55.007Z,1.47
2019-05-15T08:06:10.321Z,2.07
2019-05-15T08:08:39.640Z,2.27
2019-05-15T08:11:20.413Z,2.10
2019-05-15T08:13:40.431Z,2.20
2019-05-15T08:16:11.014Z,2.30
2019-05-15T08:18:40.234Z,2.10
2019-05-15T08:21:09.399Z,2.00
2019-05-15T08:23:39.287Z,2.30
2019-05-15T08:26:09.197Z,2.37
2019-05-15T08:28:38.428Z,2.57
2019-05-15T08:31:10.301Z,2.80
2019-05-15T08:33:38.940Z,2.37
2019-05-15T08:36:08.594Z,2.30
2019-05-15T08:38:38.320Z,2.57
2019-05-15T08:41:11.163Z,2.60
2019-05-15T08:43:38.492Z,2.40
2019-05-15T08:46:08.838Z,2.40
2019-05-15T08:48:38.453Z,2.40
2019-05-15T08:51:09.315Z,2.27
2019-05-15T08:53:39.908Z,2.00
2019-05-15T08:56:09.357Z,2.30
2019-05-15T08:58:38.622Z,2.20
2019-05-15T09:01:09.744Z,2.40
2019-05-15T09:03:39.310Z,1.70
2019-05-15T09:06:09.538Z,2.13
2019-05-15T09:08:39.457Z,2.10
2019-05-15T09:11:09.548Z,1.87
2019-05-15T09:13:43.031Z,2.07
2019-05-15T09:16:09.851Z,1.97
2019-05-15T09:18:39.468Z,2.00
2019-05-15T09:21:09.085Z,2.00
2019-05-15T09:23:40.364Z,1.97
2019-05-15T09:26:09.578Z,2.13
2019-05-15T09:28:40.291Z,1.80
2019-05-15T09:31:12.162Z,1.93
2019-05-15T09:33:41.258Z,1.83
2019-05-15T09:36:10.431Z,1.93
2019-05-15T09:38:39.615Z,1.80
2019-05-15T09:41:09.097Z,1.93
2019-05-15T09:43:40.578Z,1.70
2019-05-15T09:46:10.413Z,1.87
2019-05-15T09:48:39.551Z,2.10
2019-05-15T09:51:09.310Z,1.80
2019-05-15T09:53:39.404Z,1.90
2019-05-15T09:56:08.717Z,1.80
2019-05-15T09:58:38.239Z,1.80
2019-05-15T10:01:08.440Z,1.60
2019-05-15T10:03:39.606Z,1.70
2019-05-15T10:06:08.883Z,1.60
2019-05-15T10:08:39.729Z,1.57
2019-05-15T10:11:09.198Z,1.50
2019-05-15T10:13:38.566Z,1.63
2019-05-15T10:16:08.685Z,1.40
2019-05-15T10:18:39.504Z,1.30
2019-05-15T10:21:09.362Z,1.33
2019-05-15T10:23:40.317Z,1.60
2019-05-15T10:26:14.053Z,1.67
2019-05-15T10:28:42.683Z,1.50
2019-05-15T10:31:14.462Z,1.43
2019-05-15T10:33:44.247Z,1.50
2019-05-15T10:36:13.498Z,1.60
2019-05-15T10:38:42.517Z,1.40
2019-05-15T10:41:18.537Z,1.40
2019-05-15T10:43:49.069Z,1.60
2019-05-15T10:46:18.839Z,1.50
2019-05-15T10:48:49.407Z,1.40
2019-05-15T10:51:19.518Z,1.37
2019-05-15T10:53:55.417Z,1.37
2019-05-15T10:56:24.416Z,1.60
2019-05-15T10:58:53.410Z,1.50
2019-05-15T11:01:22.355Z,1.37
2019-05-15T11:03:52.672Z,1.50
2019-05-15T11:06:21.769Z,1.43
2019-05-15T11:08:51.994Z,1.40
2019-05-15T11:11:21.151Z,1.40
2019-05-15T11:13:50.136Z,1.50
2019-05-15T11:16:21.259Z,1.30
2019-05-15T11:18:53.326Z,1.40
2019-05-15T11:21:20.611Z,1.20
2019-05-15T11:23:49.620Z,1.40
2019-05-15T11:26:20.112Z,1.40
2019-05-15T11:28:49.935Z,1.40
2019-05-15T11:31:19.039Z,1.30
2019-05-15T11:33:49.362Z,1.40
2019-05-15T11:36:18.726Z,1.60
2019-05-15T11:38:48.606Z,1.40
2019-05-15T11:41:19.878Z,1.30
2019-05-15T11:43:49.537Z,1.50
2019-05-15T11:46:18.766Z,1.53
2019-05-15T11:48:49.847Z,1.40
2019-05-15T11:51:18.578Z,1.33
2019-05-15T11:53:49.198Z,1.50
2019-05-15T11:56:18.872Z,1.40
2019-05-15T11:58:48.568Z,1.23
2019-05-15T12:01:19.857Z,1.30
2019-05-15T12:03:48.950Z,1.50
2019-05-15T12:06:22.638Z,1.40
2019-05-15T12:08:48.710Z,1.40
2019-05-15T12:11:32.076Z,1.43
2019-05-15T12:13:48.364Z,1.37
2019-05-15T12:16:17.344Z,1.50
2019-05-15T12:18:48.341Z,1.20
2019-05-15T12:21:19.957Z,1.20
2019-05-15T12:23:48.738Z,1.20
2019-05-15T12:26:18.192Z,1.57
2019-05-15T12:28:48.971Z,1.20
2019-05-15T12:31:24.584Z,1.27
2019-05-15T12:33:51.161Z,1.43
2019-05-15T12:36:45.361Z,1.20
2019-05-15T12:38:50.950Z,1.40
2019-05-15T13:01:33.103Z,1.50
2019-05-15T13:04:02.194Z,1.23
2019-05-15T13:06:35.582Z,1.40
2019-05-15T13:09:01.997Z,1.23
2019-05-15T13:11:31.712Z,1.37
2019-05-15T13:14:00.720Z,1.30
2019-05-15T13:16:31.617Z,1.40
2019-05-15T13:19:00.550Z,1.50
2019-05-15T13:21:29.759Z,1.50
2019-05-15T13:23:58.765Z,1.33
2019-05-15T13:26:27.755Z,1.43
2019-05-15T13:28:58.348Z,1.33
2019-05-15T13:31:28.433Z,1.33
2019-05-15T13:33:58.833Z,1.33
2019-05-15T13:36:28.845Z,1.30
2019-05-15T13:38:58.087Z,1.30
2019-05-15T13:41:28.429Z,1.40
2019-05-15T13:43:58.407Z,1.30
2019-05-15T13:46:29.090Z,1.50
2019-05-15T13:48:59.870Z,1.40
2019-05-15T13:51:29.210Z,1.20
2019-05-15T13:53:58.235Z,1.30
2019-05-15T13:56:28.979Z,1.60
2019-05-15T13:58:58.717Z,1.33
2019-05-15T14:01:28.637Z,1.50
2019-05-15T14:03:58.808Z,1.30
2019-05-15T14:06:29.221Z,1.20
2019-05-15T14:08:58.258Z,1.60
2019-05-15T14:11:30.944Z,1.60
2019-05-15T14:13:59.723Z,1.37
2019-05-15T14:16:28.891Z,1.23
2019-05-15T14:18:59.661Z,1.17
2019-05-15T14:21:29.141Z,1.30
2019-05-15T14:24:01.301Z,1.27
2019-05-15T14:26:29.061Z,1.47
2019-05-15T14:28:58.699Z,1.27
2019-05-15T14:31:28.594Z,1.43
2019-05-15T14:33:58.767Z,1.40
2019-05-15T14:36:28.801Z,1.30
2019-05-15T14:38:58.946Z,1.20
2019-05-15T14:41:31.105Z,1.40
2019-05-15T14:44:13.037Z,1.40
2019-05-15T14:46:30.872Z,1.57
2019-05-15T14:49:00.840Z,1.30
2019-05-15T14:51:30.743Z,1.10
2019-05-15T14:53:59.959Z,1.40
2019-05-15T14:56:28.977Z,1.20
2019-05-15T14:58:58.657Z,1.20
2019-05-15T15:01:27.697Z,1.17
2019-05-15T15:03:58.148Z,1.40
2019-05-15T15:06:27.211Z,1.30
2019-05-15T15:08:59.235Z,1.30
2019-05-15T15:11:28.564Z,1.20
2019-05-15T15:13:59.248Z,1.20
2019-05-15T15:16:29.183Z,1.27
2019-05-15T15:18:58.563Z,1.17
2019-05-15T15:21:29.396Z,1.20
2019-05-15T15:23:58.849Z,1.13
2019-05-15T15:26:29.086Z,1.20
2019-05-15T15:29:02.055Z,1.20
2019-05-15T15:31:33.204Z,1.00
2019-05-15T15:34:02.495Z,1.03
2019-05-15T15:36:31.561Z,1.00
2019-05-15T15:39:00.839Z,1.20
2019-05-15T15:41:30.469Z,1.20
2019-05-15T15:43:59.513Z,1.20
2019-05-15T15:46:48.305Z,1.23
2019-05-15T15:49:17.027Z,1.10
2019-05-15T15:51:48.597Z,1.23
2019-05-15T15:54:24.166Z,1.20
2019-05-15T15:57:12.201Z,1.10
2019-05-15T15:59:51.652Z,1.10
2019-05-15T16:02:33.296Z,1.00
2019-05-15T16:05:19.039Z,1.00
2019-05-15T16:07:54.801Z,1.30
2019-05-15T16:10:28.833Z,1.20
2019-05-15T16:13:04.764Z,1.30
2019-05-15T16:15:43.746Z,1.20
2019-05-15T16:18:20.685Z,1.10
2019-05-15T16:20:57.989Z,1.00
2019-05-15T16:23:48.057Z,1.20
2019-05-15T16:26:23.738Z,1.27
2019-05-15T16:29:03.911Z,1.30
2019-05-15T16:31:49.206Z,1.20
2019-05-15T16:34:28.348Z,1.30
2019-05-15T16:37:14.702Z,1.23
2019-05-15T16:39:57.882Z,1.20
2019-05-15T16:42:38.160Z,1.27
2019-05-15T16:45:21.882Z,1.30
2019-05-15T16:48:04.026Z,1.47
2019-05-15T16:51:01.675Z,1.17
2019-05-15T16:57:12.143Z,1.20
2019-05-15T17:00:26.254Z,1.10
2019-05-15T17:12:10.969Z,1.20
2019-05-15T17:15:18.766Z,1.10
2019-05-15T17:17:59.550Z,1.27
2019-05-15T17:21:19.206Z,1.40
2019-05-15T17:30:52.761Z,1.40
2019-05-15T17:33:29.883Z,1.10
2019-05-15T17:35:58.870Z,1.27
2019-05-15T17:38:28.726Z,1.40
2019-05-15T17:40:59.186Z,1.10
2019-05-15T17:43:28.753Z,1.20
2019-05-15T17:46:08.954Z,1.17
2019-05-15T17:48:42.259Z,1.50
2019-05-15T17:51:12.199Z,1.30
2019-05-15T17:53:41.098Z,1.20
2019-05-15T17:56:10.052Z,1.10
2019-05-15T17:58:39.787Z,1.50
2019-05-15T18:01:08.995Z,1.23
2019-05-15T18:03:39.204Z,1.20
2019-05-15T18:06:08.495Z,1.40
2019-05-15T18:08:39.058Z,1.60
2019-05-15T18:11:09.630Z,1.23
2019-05-15T18:13:39.068Z,1.50
2019-05-15T18:16:13.314Z,1.47
2019-05-15T18:18:38.772Z,1.47
2019-05-15T18:21:08.821Z,1.60
2019-05-15T18:23:38.864Z,1.40
2019-05-15T18:26:09.022Z,1.50
2019-05-15T18:28:39.984Z,1.30
2019-05-15T18:31:09.240Z,1.43
2019-05-15T18:33:53.057Z,1.60
2019-05-15T18:36:11.147Z,1.50
2019-05-15T18:38:41.391Z,1.63
2019-05-15T18:41:10.570Z,1.53
2019-05-15T18:43:40.122Z,1.43
2019-05-15T18:46:09.280Z,1.60
2019-05-15T18:48:38.280Z,1.33
2019-05-15T18:51:08.137Z,1.60
2019-05-15T18:53:38.843Z,1.70
2019-05-15T18:56:09.004Z,1.40
2019-05-15T18:58:38.282Z,1.50
2019-05-15T19:01:09.249Z,1.50
2019-05-15T19:03:38.490Z,1.57
2019-05-15T19:06:08.904Z,1.50
2019-05-15T19:08:38.763Z,1.50
2019-05-15T19:11:07.822Z,1.57
2019-05-15T19:13:38.778Z,1.90
2019-05-15T19:16:07.635Z,1.53
2019-05-15T19:18:38.516Z,1.77
2019-05-15T19:21:08.010Z,1.90
2019-05-15T19:23:38.114Z,1.77
2019-05-15T19:26:09.345Z,1.83
2019-05-15T19:28:39.253Z,1.90
2019-05-15T19:31:08.957Z,1.60
2019-05-15T19:33:41.002Z,2.23
2019-05-15T19:36:09.387Z,1.70
2019-05-15T19:38:38.425Z,1.70
2019-05-15T19:41:09.691Z,2.00
2019-05-15T19:43:38.701Z,1.93
2019-05-15T19:46:08.076Z,1.83
2019-05-15T19:48:38.577Z,1.90
2019-05-15T19:51:09.024Z,2.10
2019-05-15T19:53:38.173Z,1.70
2019-05-15T19:56:08.414Z,1.80
2019-05-15T19:58:37.571Z,1.57
2019-05-15T20:01:08.112Z,1.90
2019-05-15T20:03:49.253Z,2.40
2019-05-15T20:06:08.484Z,1.60
2019-05-15T20:08:38.561Z,1.87
2019-05-15T20:11:10.260Z,2.07
2019-05-15T20:13:38.490Z,1.60
2019-05-15T20:16:07.483Z,1.80
2019-05-15T20:18:38.412Z,1.67
2019-05-15T20:21:08.900Z,1.80
2019-05-15T20:23:38.278Z,1.80
2019-05-15T20:26:08.354Z,1.90
2019-05-15T20:28:39.163Z,1.67
2019-05-15T20:31:08.439Z,1.63
2019-05-15T20:33:37.849Z,1.93
2019-05-15T20:36:09.157Z,2.10
2019-05-15T20:38:39.859Z,2.10
2019-05-15T20:41:09.816Z,1.70
2019-05-15T20:43:39.118Z,1.97
2019-05-15T20:46:08.572Z,1.70
2019-05-15T20:48:39.102Z,2.03
2019-05-15T20:51:08.150Z,1.90
2019-05-15T20:53:38.057Z,1.77
2019-05-15T20:56:08.356Z,1.80
2019-05-15T20:58:38.679Z,1.87
2019-05-15T21:01:09.378Z,1.80
2019-05-15T21:03:41.537Z,2.00
2019-05-15T21:06:12.445Z,1.53
2019-05-15T21:08:41.181Z,1.53
2019-05-15T21:11:11.994Z,1.90
2019-05-15T21:13:41.254Z,1.80
2019-05-15T21:16:10.607Z,1.80
2019-05-15T21:18:41.507Z,1.80
2019-05-15T21:21:10.599Z,2.00
2019-05-15T21:23:40.860Z,2.07
2019-05-15T21:26:11.087Z,1.80
2019-05-15T21:28:40.260Z,1.90
2019-05-15T21:31:09.425Z,2.20
2019-05-15T21:33:39.433Z,1.80
2019-05-15T21:36:08.330Z,2.10
2019-05-15T21:38:38.831Z,1.77
2019-05-15T21:41:08.391Z,1.93
2019-05-15T21:43:40.058Z,1.60
2019-05-15T21:46:09.060Z,2.00
2019-05-15T21:48:38.370Z,2.30
2019-05-15T21:51:11.310Z,2.27
2019-05-15T21:53:38.887Z,2.00
2019-05-15T21:56:08.215Z,2.20
2019-05-15T21:58:37.711Z,2.40
2019-05-15T22:01:08.075Z,2.10
2019-05-15T22:03:38.976Z,1.93
2019-05-15T22:06:08.770Z,2.00
2019-05-15T22:08:38.452Z,2.07
2019-05-15T22:11:07.443Z,2.00
2019-05-15T22:13:39.068Z,2.13
2019-05-15T22:16:08.114Z,2.30
2019-05-15T22:18:38.449Z,1.93
2019-05-15T22:21:07.941Z,2.10
2019-05-15T22:23:38.465Z,2.00
2019-05-15T22:26:07.483Z,2.00
2019-05-15T22:28:38.488Z,2.03
2019-05-15T22:31:08.847Z,1.70
2019-05-15T22:33:38.105Z,1.97
2019-05-15T22:36:08.357Z,2.40
2019-05-15T22:38:37.615Z,1.97
2019-05-15T22:41:09.952Z,2.30
2019-05-15T22:43:39.263Z,2.17
2019-05-15T22:46:10.754Z,2.03
2019-05-15T22:48:38.405Z,2.30
2019-05-15T22:51:08.379Z,2.20
2019-05-15T22:53:38.316Z,2.20
2019-05-15T22:56:09.340Z,2.33
2019-05-15T22:58:38.657Z,1.93
2019-05-15T23:01:09.127Z,2.20
2019-05-15T23:03:39.465Z,1.90
2019-05-15T23:06:08.749Z,2.13
2019-05-15T23:08:38.533Z,2.10
2019-05-15T23:11:09.575Z,2.20
2019-05-15T23:13:39.010Z,2.00
2019-05-15T23:16:08.069Z,2.03
2019-05-15T23:18:36.977Z,2.00
2019-05-15T23:21:06.077Z,2.50
2019-05-15T23:23:35.013Z,2.20
2019-05-15T23:26:03.968Z,2.07
2019-05-15T23:28:32.939Z,2.20
2019-05-15T23:31:01.890Z,2.10
2019-05-15T23:33:30.813Z,1.87
2019-05-15T23:35:59.713Z,2.27
2019-05-15T23:38:28.637Z,1.73
2019-05-15T23:40:59.010Z,2.20
2019-05-15T23:43:29.022Z,2.10
2019-05-15T23:45:58.943Z,1.77
2019-05-15T23:48:29.177Z,2.10
2019-05-15T23:50:59.189Z,2.23
2019-05-15T23:53:28.948Z,2.17
2019-05-15T23:55:58.737Z,2.00
2019-05-15T23:58:29.175Z,2.27
